sensor_id;sensor_type;location;lat;lon;timestamp;temperature;humidity
67868;SHT31;54672;46.096;14.470;2023-04-24T00:02:17;13.64;70.99
67868;SHT31;54672;46.096;14.470;2023-04-24T00:04:43;13.74;70.34
67868;SHT31;54672;46.096;14.470;2023-04-24T00:07:12;13.62;70.67
67868;SHT31;54672;46.096;14.470;2023-04-24T00:09:38;13.59;70.69
67868;SHT31;54672;46.096;14.470;2023-04-24T00:12:04;13.62;71.01
67868;SHT31;54672;46.096;14.470;2023-04-24T00:14:30;13.64;71.10
67868;SHT31;54672;46.096;14.470;2023-04-24T00:16:56;13.58;71.83
67868;SHT31;54672;46.096;14.470;2023-04-24T00:19:21;13.58;71.55
67868;SHT31;54672;46.096;14.470;2023-04-24T00:21:47;13.53;71.94
67868;SHT31;54672;46.096;14.470;2023-04-24T00:24:15;13.57;71.94
67868;SHT31;54672;46.096;14.470;2023-04-24T00:26:41;13.48;72.24
67868;SHT31;54672;46.096;14.470;2023-04-24T00:29:07;13.40;72.61
67868;SHT31;54672;46.096;14.470;2023-04-24T00:31:32;13.31;72.95
67868;SHT31;54672;46.096;14.470;2023-04-24T00:34:00;13.44;72.44
67868;SHT31;54672;46.096;14.470;2023-04-24T00:36:26;13.38;72.78
67868;SHT31;54672;46.096;14.470;2023-04-24T00:38:52;13.31;73.16
67868;SHT31;54672;46.096;14.470;2023-04-24T00:41:17;13.30;73.26
67868;SHT31;54672;46.096;14.470;2023-04-24T00:43:43;13.25;73.57
67868;SHT31;54672;46.096;14.470;2023-04-24T00:46:08;13.23;73.62
67868;SHT31;54672;46.096;14.470;2023-04-24T00:48:34;13.35;72.87
67868;SHT31;54672;46.096;14.470;2023-04-24T00:51:00;13.53;72.66
67868;SHT31;54672;46.096;14.470;2023-04-24T00:53:25;13.57;72.50
67868;SHT31;54672;46.096;14.470;2023-04-24T00:55:51;13.47;72.84
67868;SHT31;54672;46.096;14.470;2023-04-24T00:58:16;13.41;73.19
67868;SHT31;54672;46.096;14.470;2023-04-24T01:00:42;13.38;73.36
67868;SHT31;54672;46.096;14.470;2023-04-24T01:03:09;13.28;73.58
67868;SHT31;54672;46.096;14.470;2023-04-24T01:05:36;13.33;73.72
67868;SHT31;54672;46.096;14.470;2023-04-24T01:08:01;13.30;73.49
67868;SHT31;54672;46.096;14.470;2023-04-24T01:10:29;13.23;74.32
67868;SHT31;54672;46.096;14.470;2023-04-24T01:12:56;13.23;73.89
67868;SHT31;54672;46.096;14.470;2023-04-24T01:15:21;13.24;74.20
67868;SHT31;54672;46.096;14.470;2023-04-24T01:17:47;13.27;74.11
67868;SHT31;54672;46.096;14.470;2023-04-24T01:20:12;13.24;74.17
67868;SHT31;54672;46.096;14.470;2023-04-24T01:22:38;13.15;74.44
67868;SHT31;54672;46.096;14.470;2023-04-24T01:25:04;13.15;74.17
67868;SHT31;54672;46.096;14.470;2023-04-24T01:27:30;13.18;74.27
67868;SHT31;54672;46.096;14.470;2023-04-24T01:29:55;13.30;74.23
67868;SHT31;54672;46.096;14.470;2023-04-24T01:32:21;13.38;74.05
67868;SHT31;54672;46.096;14.470;2023-04-24T01:34:48;13.35;74.09
67868;SHT31;54672;46.096;14.470;2023-04-24T01:37:13;13.41;74.25
67868;SHT31;54672;46.096;14.470;2023-04-24T01:39:39;13.45;74.07
67868;SHT31;54672;46.096;14.470;2023-04-24T01:42:05;13.45;74.18
67868;SHT31;54672;46.096;14.470;2023-04-24T01:44:31;13.43;74.42
67868;SHT31;54672;46.096;14.470;2023-04-24T01:46:57;13.53;74.15
67868;SHT31;54672;46.096;14.470;2023-04-24T01:49:22;13.55;74.19
67868;SHT31;54672;46.096;14.470;2023-04-24T01:51:48;13.61;74.03
67868;SHT31;54672;46.096;14.470;2023-04-24T01:54:13;13.65;74.08
67868;SHT31;54672;46.096;14.470;2023-04-24T01:56:43;13.61;74.43
67868;SHT31;54672;46.096;14.470;2023-04-24T01:59:12;13.68;74.56
67868;SHT31;54672;46.096;14.470;2023-04-24T02:01:38;13.59;74.79
67868;SHT31;54672;46.096;14.470;2023-04-24T02:04:05;13.58;75.16
67868;SHT31;54672;46.096;14.470;2023-04-24T02:06:30;13.55;75.34
67868;SHT31;54672;46.096;14.470;2023-04-24T02:09:00;13.44;75.70
67868;SHT31;54672;46.096;14.470;2023-04-24T02:11:26;13.44;75.89
67868;SHT31;54672;46.096;14.470;2023-04-24T02:13:52;13.43;76.06
67868;SHT31;54672;46.096;14.470;2023-04-24T02:16:18;13.45;75.96
67868;SHT31;54672;46.096;14.470;2023-04-24T02:18:43;13.50;75.78
67868;SHT31;54672;46.096;14.470;2023-04-24T02:21:09;13.45;75.87
67868;SHT31;54672;46.096;14.470;2023-04-24T02:23:35;13.41;76.09
67868;SHT31;54672;46.096;14.470;2023-04-24T02:26:00;13.34;76.32
67868;SHT31;54672;46.096;14.470;2023-04-24T02:28:26;13.31;76.63
67868;SHT31;54672;46.096;14.470;2023-04-24T02:30:51;13.27;76.73
67868;SHT31;54672;46.096;14.470;2023-04-24T02:33:17;13.17;77.38
67868;SHT31;54672;46.096;14.470;2023-04-24T02:35:42;13.13;77.67
67868;SHT31;54672;46.096;14.470;2023-04-24T02:38:08;13.11;77.71
67868;SHT31;54672;46.096;14.470;2023-04-24T02:40:33;13.13;77.66
67868;SHT31;54672;46.096;14.470;2023-04-24T02:42:59;13.14;77.52
67868;SHT31;54672;46.096;14.470;2023-04-24T02:45:24;13.15;77.58
67868;SHT31;54672;46.096;14.470;2023-04-24T02:47:50;13.15;77.58
67868;SHT31;54672;46.096;14.470;2023-04-24T02:50:15;13.20;77.40
67868;SHT31;54672;46.096;14.470;2023-04-24T02:52:41;13.21;77.43
67868;SHT31;54672;46.096;14.470;2023-04-24T02:55:06;13.25;77.17
67868;SHT31;54672;46.096;14.470;2023-04-24T02:57:33;13.28;77.04
67868;SHT31;54672;46.096;14.470;2023-04-24T02:59:58;13.31;77.00
67868;SHT31;54672;46.096;14.470;2023-04-24T03:02:24;13.34;77.09
67868;SHT31;54672;46.096;14.470;2023-04-24T03:04:50;13.31;77.77
67868;SHT31;54672;46.096;14.470;2023-04-24T03:07:15;13.25;77.69
67868;SHT31;54672;46.096;14.470;2023-04-24T03:09:41;13.23;77.60
67868;SHT31;54672;46.096;14.470;2023-04-24T03:12:06;13.25;77.58
67868;SHT31;54672;46.096;14.470;2023-04-24T03:14:32;13.21;77.90
67868;SHT31;54672;46.096;14.470;2023-04-24T03:16:58;13.25;77.95
67868;SHT31;54672;46.096;14.470;2023-04-24T03:19:23;13.23;77.60
67868;SHT31;54672;46.096;14.470;2023-04-24T03:21:49;13.24;77.84
67868;SHT31;54672;46.096;14.470;2023-04-24T03:24:15;13.18;77.77
67868;SHT31;54672;46.096;14.470;2023-04-24T03:26:40;13.24;77.88
67868;SHT31;54672;46.096;14.470;2023-04-24T03:29:05;13.23;77.89
67868;SHT31;54672;46.096;14.470;2023-04-24T03:31:31;13.20;77.82
67868;SHT31;54672;46.096;14.470;2023-04-24T03:33:56;13.20;77.93
67868;SHT31;54672;46.096;14.470;2023-04-24T03:36:22;13.18;77.95
67868;SHT31;54672;46.096;14.470;2023-04-24T03:38:47;13.17;78.09
67868;SHT31;54672;46.096;14.470;2023-04-24T03:41:13;13.25;77.88
67868;SHT31;54672;46.096;14.470;2023-04-24T03:43:38;13.24;77.79
67868;SHT31;54672;46.096;14.470;2023-04-24T03:46:04;13.23;77.95
67868;SHT31;54672;46.096;14.470;2023-04-24T03:48:30;13.17;78.08
67868;SHT31;54672;46.096;14.470;2023-04-24T03:50:55;13.15;78.29
67868;SHT31;54672;46.096;14.470;2023-04-24T03:53:21;13.14;78.17
67868;SHT31;54672;46.096;14.470;2023-04-24T03:55:47;13.18;78.34
67868;SHT31;54672;46.096;14.470;2023-04-24T03:58:12;13.07;78.63
67868;SHT31;54672;46.096;14.470;2023-04-24T04:00:39;13.10;78.73
67868;SHT31;54672;46.096;14.470;2023-04-24T04:03:05;13.07;78.89
67868;SHT31;54672;46.096;14.470;2023-04-24T04:05:31;13.04;79.40
67868;SHT31;54672;46.096;14.470;2023-04-24T04:07:56;12.96;79.85
67868;SHT31;54672;46.096;14.470;2023-04-24T04:10:22;12.94;80.19
67868;SHT31;54672;46.096;14.470;2023-04-24T04:12:47;12.80;81.15
67868;SHT31;54672;46.096;14.470;2023-04-24T04:15:13;12.75;81.78
67868;SHT31;54672;46.096;14.470;2023-04-24T04:17:38;12.72;81.47
67868;SHT31;54672;46.096;14.470;2023-04-24T04:20:04;12.75;81.37
67868;SHT31;54672;46.096;14.470;2023-04-24T04:22:34;12.70;81.81
67868;SHT31;54672;46.096;14.470;2023-04-24T04:24:59;12.70;82.41
67868;SHT31;54672;46.096;14.470;2023-04-24T04:27:25;12.67;82.73
67868;SHT31;54672;46.096;14.470;2023-04-24T04:29:51;12.67;82.67
67868;SHT31;54672;46.096;14.470;2023-04-24T04:32:17;12.75;81.53
67868;SHT31;54672;46.096;14.470;2023-04-24T04:34:43;12.80;81.63
67868;SHT31;54672;46.096;14.470;2023-04-24T04:37:10;12.75;82.32
67868;SHT31;54672;46.096;14.470;2023-04-24T04:39:37;12.76;82.13
67868;SHT31;54672;46.096;14.470;2023-04-24T04:42:03;12.77;82.64
67868;SHT31;54672;46.096;14.470;2023-04-24T04:44:29;12.82;81.93
67868;SHT31;54672;46.096;14.470;2023-04-24T04:46:56;12.79;82.76
67868;SHT31;54672;46.096;14.470;2023-04-24T04:49:22;12.83;82.81
67868;SHT31;54672;46.096;14.470;2023-04-24T04:51:49;12.80;82.37
67868;SHT31;54672;46.096;14.470;2023-04-24T04:54:16;12.80;82.75
67868;SHT31;54672;46.096;14.470;2023-04-24T04:56:41;12.84;83.72
67868;SHT31;54672;46.096;14.470;2023-04-24T04:59:07;12.84;83.78
67868;SHT31;54672;46.096;14.470;2023-04-24T05:01:32;12.83;83.60
67868;SHT31;54672;46.096;14.470;2023-04-24T05:03:57;12.79;83.04
67868;SHT31;54672;46.096;14.470;2023-04-24T05:06:23;12.79;83.07
67868;SHT31;54672;46.096;14.470;2023-04-24T05:08:48;12.86;83.88
67868;SHT31;54672;46.096;14.470;2023-04-24T05:11:14;12.87;83.98
67868;SHT31;54672;46.096;14.470;2023-04-24T05:13:40;12.92;84.06
67868;SHT31;54672;46.096;14.470;2023-04-24T05:16:06;12.92;83.81
67868;SHT31;54672;46.096;14.470;2023-04-24T05:18:31;13.02;83.55
67868;SHT31;54672;46.096;14.470;2023-04-24T05:20:57;12.99;82.84
67868;SHT31;54672;46.096;14.470;2023-04-24T05:23:22;12.96;82.83
67868;SHT31;54672;46.096;14.470;2023-04-24T05:25:48;12.93;82.91
67868;SHT31;54672;46.096;14.470;2023-04-24T05:28:13;12.92;82.96
67868;SHT31;54672;46.096;14.470;2023-04-24T05:30:40;12.96;82.89
67868;SHT31;54672;46.096;14.470;2023-04-24T05:33:06;13.02;82.87
67868;SHT31;54672;46.096;14.470;2023-04-24T05:35:31;12.99;83.41
67868;SHT31;54672;46.096;14.470;2023-04-24T05:37:56;13.02;83.50
67868;SHT31;54672;46.096;14.470;2023-04-24T05:40:22;13.04;83.96
67868;SHT31;54672;46.096;14.470;2023-04-24T05:42:47;13.10;84.03
67868;SHT31;54672;46.096;14.470;2023-04-24T05:45:13;13.07;83.51
67868;SHT31;54672;46.096;14.470;2023-04-24T05:47:42;13.08;83.54
67868;SHT31;54672;46.096;14.470;2023-04-24T05:50:09;13.13;83.32
67868;SHT31;54672;46.096;14.470;2023-04-24T05:52:35;13.00;83.21
67868;SHT31;54672;46.096;14.470;2023-04-24T05:55:00;13.08;81.97
67868;SHT31;54672;46.096;14.470;2023-04-24T05:57:26;13.03;82.57
67868;SHT31;54672;46.096;14.470;2023-04-24T05:59:51;12.93;81.74
67868;SHT31;54672;46.096;14.470;2023-04-24T06:02:17;12.83;82.11
67868;SHT31;54672;46.096;14.470;2023-04-24T06:04:42;12.84;82.48
67868;SHT31;54672;46.096;14.470;2023-04-24T06:07:10;12.92;81.98
67868;SHT31;54672;46.096;14.470;2023-04-24T06:09:36;12.94;81.49
67868;SHT31;54672;46.096;14.470;2023-04-24T06:12:01;13.04;81.90
67868;SHT31;54672;46.096;14.470;2023-04-24T06:14:27;13.08;81.74
67868;SHT31;54672;46.096;14.470;2023-04-24T06:16:53;13.28;81.07
67868;SHT31;54672;46.096;14.470;2023-04-24T06:19:19;13.41;79.91
67868;SHT31;54672;46.096;14.470;2023-04-24T06:21:44;13.48;79.67
67868;SHT31;54672;46.096;14.470;2023-04-24T06:24:10;13.57;79.63
67868;SHT31;54672;46.096;14.470;2023-04-24T06:26:35;13.54;79.47
67868;SHT31;54672;46.096;14.470;2023-04-24T06:29:01;13.58;79.91
67868;SHT31;54672;46.096;14.470;2023-04-24T06:31:27;13.78;79.15
67868;SHT31;54672;46.096;14.470;2023-04-24T06:33:52;13.90;78.71
67868;SHT31;54672;46.096;14.470;2023-04-24T06:36:17;14.02;78.37
67868;SHT31;54672;46.096;14.470;2023-04-24T06:38:43;14.01;78.50
67868;SHT31;54672;46.096;14.470;2023-04-24T06:41:10;13.96;78.28
67868;SHT31;54672;46.096;14.470;2023-04-24T06:43:35;13.93;78.13
67868;SHT31;54672;46.096;14.470;2023-04-24T06:46:01;13.87;78.26
67868;SHT31;54672;46.096;14.470;2023-04-24T06:48:28;13.82;78.56
67868;SHT31;54672;46.096;14.470;2023-04-24T06:50:54;13.82;78.93
67868;SHT31;54672;46.096;14.470;2023-04-24T06:53:19;13.93;78.85
67868;SHT31;54672;46.096;14.470;2023-04-24T06:55:45;13.95;79.15
67868;SHT31;54672;46.096;14.470;2023-04-24T06:58:11;14.05;78.77
67868;SHT31;54672;46.096;14.470;2023-04-24T07:00:37;14.19;78.70
67868;SHT31;54672;46.096;14.470;2023-04-24T07:03:03;14.37;78.23
67868;SHT31;54672;46.096;14.470;2023-04-24T07:05:30;14.56;77.70
67868;SHT31;54672;46.096;14.470;2023-04-24T07:07:56;14.63;77.06
67868;SHT31;54672;46.096;14.470;2023-04-24T07:10:23;14.65;76.77
67868;SHT31;54672;46.096;14.470;2023-04-24T07:12:49;14.36;77.85
67868;SHT31;54672;46.096;14.470;2023-04-24T07:15:15;14.32;78.12
67868;SHT31;54672;46.096;14.470;2023-04-24T07:17:41;14.63;77.07
67868;SHT31;54672;46.096;14.470;2023-04-24T07:20:10;14.68;76.92
67868;SHT31;54672;46.096;14.470;2023-04-24T07:22:40;14.70;76.76
67868;SHT31;54672;46.096;14.470;2023-04-24T07:25:06;14.59;77.25
67868;SHT31;54672;46.096;14.470;2023-04-24T07:27:32;14.44;77.78
67868;SHT31;54672;46.096;14.470;2023-04-24T07:29:58;14.44;78.69
67868;SHT31;54672;46.096;14.470;2023-04-24T07:32:23;14.16;80.07
67868;SHT31;54672;46.096;14.470;2023-04-24T07:34:49;14.02;79.96
67868;SHT31;54672;46.096;14.470;2023-04-24T07:37:14;13.95;80.62
67868;SHT31;54672;46.096;14.470;2023-04-24T07:39:40;13.68;81.62
67868;SHT31;54672;46.096;14.470;2023-04-24T07:42:06;13.54;82.36
67868;SHT31;54672;46.096;14.470;2023-04-24T07:44:31;13.61;81.66
67868;SHT31;54672;46.096;14.470;2023-04-24T07:46:57;13.74;81.19
67868;SHT31;54672;46.096;14.470;2023-04-24T07:49:22;13.78;81.20
67868;SHT31;54672;46.096;14.470;2023-04-24T07:51:49;13.89;80.94
67868;SHT31;54672;46.096;14.470;2023-04-24T07:54:14;13.85;81.35
67868;SHT31;54672;46.096;14.470;2023-04-24T07:56:41;13.83;79.91
67868;SHT31;54672;46.096;14.470;2023-04-24T07:59:08;13.93;79.75
67868;SHT31;54672;46.096;14.470;2023-04-24T08:01:35;13.98;79.13
67868;SHT31;54672;46.096;14.470;2023-04-24T08:04:00;13.96;78.93
67868;SHT31;54672;46.096;14.470;2023-04-24T08:06:26;14.08;78.64
67868;SHT31;54672;46.096;14.470;2023-04-24T08:08:59;14.17;78.28
67868;SHT31;54672;46.096;14.470;2023-04-24T08:11:25;14.36;77.41
67868;SHT31;54672;46.096;14.470;2023-04-24T08:13:50;14.40;77.43
67868;SHT31;54672;46.096;14.470;2023-04-24T08:16:16;14.38;77.21
67868;SHT31;54672;46.096;14.470;2023-04-24T08:18:41;14.53;77.18
67868;SHT31;54672;46.096;14.470;2023-04-24T08:21:07;14.56;76.58
67868;SHT31;54672;46.096;14.470;2023-04-24T08:23:32;14.60;76.50
67868;SHT31;54672;46.096;14.470;2023-04-24T08:25:57;14.53;75.72
67868;SHT31;54672;46.096;14.470;2023-04-24T08:28:23;14.50;75.81
67868;SHT31;54672;46.096;14.470;2023-04-24T08:30:49;14.56;75.67
67868;SHT31;54672;46.096;14.470;2023-04-24T08:33:20;14.48;75.31
67868;SHT31;54672;46.096;14.470;2023-04-24T08:35:45;14.29;76.07
67868;SHT31;54672;46.096;14.470;2023-04-24T08:38:11;14.26;76.32
67868;SHT31;54672;46.096;14.470;2023-04-24T08:40:36;14.33;76.63
67868;SHT31;54672;46.096;14.470;2023-04-24T08:43:03;14.13;77.06
67868;SHT31;54672;46.096;14.470;2023-04-24T08:45:29;14.15;77.53
67868;SHT31;54672;46.096;14.470;2023-04-24T08:47:55;14.26;77.43
67868;SHT31;54672;46.096;14.470;2023-04-24T08:50:21;14.24;77.02
67868;SHT31;54672;46.096;14.470;2023-04-24T08:52:50;14.26;77.59
67868;SHT31;54672;46.096;14.470;2023-04-24T08:55:16;14.12;77.75
67868;SHT31;54672;46.096;14.470;2023-04-24T08:57:45;14.12;78.10
67868;SHT31;54672;46.096;14.470;2023-04-24T09:00:11;14.13;78.07
67868;SHT31;54672;46.096;14.470;2023-04-24T09:02:40;14.16;78.41
67868;SHT31;54672;46.096;14.470;2023-04-24T09:05:07;14.19;78.70
67868;SHT31;54672;46.096;14.470;2023-04-24T09:07:35;14.10;79.00
67868;SHT31;54672;46.096;14.470;2023-04-24T09:10:02;14.02;80.70
67868;SHT31;54672;46.096;14.470;2023-04-24T09:12:28;13.86;81.72
67868;SHT31;54672;46.096;14.470;2023-04-24T09:14:54;13.50;82.96
67868;SHT31;54672;46.096;14.470;2023-04-24T09:17:20;12.92;83.63
67868;SHT31;54672;46.096;14.470;2023-04-24T09:19:48;12.80;85.90
67868;SHT31;54672;46.096;14.470;2023-04-24T09:22:14;12.76;86.79
67868;SHT31;54672;46.096;14.470;2023-04-24T09:24:40;12.65;87.58
67868;SHT31;54672;46.096;14.470;2023-04-24T09:27:06;12.50;87.90
67868;SHT31;54672;46.096;14.470;2023-04-24T09:29:32;12.56;88.35
67868;SHT31;54672;46.096;14.470;2023-04-24T09:31:58;12.62;88.28
67868;SHT31;54672;46.096;14.470;2023-04-24T09:34:25;12.65;88.46
67868;SHT31;54672;46.096;14.470;2023-04-24T09:36:51;12.70;88.59
67868;SHT31;54672;46.096;14.470;2023-04-24T09:39:17;12.76;87.92
67868;SHT31;54672;46.096;14.470;2023-04-24T09:41:51;12.66;88.21
67868;SHT31;54672;46.096;14.470;2023-04-24T09:44:21;12.53;88.55
67868;SHT31;54672;46.096;14.470;2023-04-24T09:47:08;12.69;89.02
67868;SHT31;54672;46.096;14.470;2023-04-24T09:49:34;12.72;88.92
67868;SHT31;54672;46.096;14.470;2023-04-24T09:52:05;12.75;88.82
67868;SHT31;54672;46.096;14.470;2023-04-24T09:54:31;12.66;88.66
67868;SHT31;54672;46.096;14.470;2023-04-24T09:56:57;12.63;89.67
67868;SHT31;54672;46.096;14.470;2023-04-24T09:59:22;12.57;90.15
67868;SHT31;54672;46.096;14.470;2023-04-24T10:01:48;12.50;91.47
67868;SHT31;54672;46.096;14.470;2023-04-24T10:04:18;12.31;91.85
67868;SHT31;54672;46.096;14.470;2023-04-24T10:06:44;12.14;93.42
67868;SHT31;54672;46.096;14.470;2023-04-24T10:09:09;12.08;93.45
67868;SHT31;54672;46.096;14.470;2023-04-24T10:11:37;12.05;93.89
67868;SHT31;54672;46.096;14.470;2023-04-24T10:14:05;12.05;93.95
67868;SHT31;54672;46.096;14.470;2023-04-24T10:16:31;12.02;93.77
67868;SHT31;54672;46.096;14.470;2023-04-24T10:18:59;11.95;94.19
67868;SHT31;54672;46.096;14.470;2023-04-24T10:21:24;11.97;93.67
67868;SHT31;54672;46.096;14.470;2023-04-24T10:23:52;11.90;93.84
67868;SHT31;54672;46.096;14.470;2023-04-24T10:26:19;11.91;94.16
67868;SHT31;54672;46.096;14.470;2023-04-24T10:28:46;11.88;94.26
67868;SHT31;54672;46.096;14.470;2023-04-24T10:31:12;11.85;93.67
67868;SHT31;54672;46.096;14.470;2023-04-24T10:33:40;11.87;94.05
67868;SHT31;54672;46.096;14.470;2023-04-24T10:36:07;11.73;94.99
67868;SHT31;54672;46.096;14.470;2023-04-24T10:38:35;11.74;95.41
67868;SHT31;54672;46.096;14.470;2023-04-24T10:41:11;11.73;95.64
67868;SHT31;54672;46.096;14.470;2023-04-24T10:43:42;11.73;95.53
67868;SHT31;54672;46.096;14.470;2023-04-24T10:46:08;11.66;95.25
67868;SHT31;54672;46.096;14.470;2023-04-24T10:48:35;11.73;96.47
67868;SHT31;54672;46.096;14.470;2023-04-24T10:51:01;11.66;95.58
67868;SHT31;54672;46.096;14.470;2023-04-24T10:53:30;11.66;96.03
67868;SHT31;54672;46.096;14.470;2023-04-24T10:56:09;11.64;96.16
67868;SHT31;54672;46.096;14.470;2023-04-24T10:58:41;11.70;96.88
67868;SHT31;54672;46.096;14.470;2023-04-24T11:01:08;11.62;95.88
67868;SHT31;54672;46.096;14.470;2023-04-24T11:03:34;11.54;95.64
67868;SHT31;54672;46.096;14.470;2023-04-24T11:06:08;11.59;95.70
67868;SHT31;54672;46.096;14.470;2023-04-24T11:08:43;11.56;95.84
67868;SHT31;54672;46.096;14.470;2023-04-24T11:11:17;11.63;95.97
67868;SHT31;54672;46.096;14.470;2023-04-24T11:18:56;11.73;95.77
67868;SHT31;54672;46.096;14.470;2023-04-24T11:21:25;11.59;95.24
67868;SHT31;54672;46.096;14.470;2023-04-24T11:23:51;11.63;94.81
67868;SHT31;54672;46.096;14.470;2023-04-24T11:26:21;11.62;95.44
67868;SHT31;54672;46.096;14.470;2023-04-24T11:28:50;11.60;96.07
67868;SHT31;54672;46.096;14.470;2023-04-24T11:31:39;11.74;96.62
67868;SHT31;54672;46.096;14.470;2023-04-24T11:34:13;11.95;96.34
67868;SHT31;54672;46.096;14.470;2023-04-24T11:36:39;11.94;95.18
67868;SHT31;54672;46.096;14.470;2023-04-24T11:39:05;12.10;95.47
67868;SHT31;54672;46.096;14.470;2023-04-24T11:41:32;12.26;94.79
67868;SHT31;54672;46.096;14.470;2023-04-24T11:43:58;12.11;95.39
67868;SHT31;54672;46.096;14.470;2023-04-24T11:46:27;12.13;94.88
67868;SHT31;54672;46.096;14.470;2023-04-24T11:48:53;11.99;95.19
67868;SHT31;54672;46.096;14.470;2023-04-24T11:51:19;12.07;95.48
67868;SHT31;54672;46.096;14.470;2023-04-24T11:53:44;11.95;95.34
67868;SHT31;54672;46.096;14.470;2023-04-24T11:56:10;12.02;95.37
67868;SHT31;54672;46.096;14.470;2023-04-24T11:58:37;12.22;95.53
67868;SHT31;54672;46.096;14.470;2023-04-24T12:01:04;12.15;95.72
67868;SHT31;54672;46.096;14.470;2023-04-24T12:03:30;12.17;95.35
67868;SHT31;54672;46.096;14.470;2023-04-24T12:06:08;12.15;95.67
67868;SHT31;54672;46.096;14.470;2023-04-24T12:08:34;12.18;95.57
67868;SHT31;54672;46.096;14.470;2023-04-24T12:11:01;12.17;95.06
67868;SHT31;54672;46.096;14.470;2023-04-24T12:13:27;12.24;94.88
67868;SHT31;54672;46.096;14.470;2023-04-24T12:15:53;12.08;94.13
67868;SHT31;54672;46.096;14.470;2023-04-24T12:18:22;12.07;94.74
67868;SHT31;54672;46.096;14.470;2023-04-24T12:20:47;12.11;94.51
67868;SHT31;54672;46.096;14.470;2023-04-24T12:23:13;12.07;93.97
67868;SHT31;54672;46.096;14.470;2023-04-24T12:25:38;11.85;94.79
67868;SHT31;54672;46.096;14.470;2023-04-24T12:30:35;11.84;95.68
67868;SHT31;54672;46.096;14.470;2023-04-24T12:33:02;11.80;95.60
67868;SHT31;54672;46.096;14.470;2023-04-24T12:35:29;11.76;94.91
67868;SHT31;54672;46.096;14.470;2023-04-24T12:37:55;11.83;95.71
67868;SHT31;54672;46.096;14.470;2023-04-24T12:40:21;11.95;95.03
67868;SHT31;54672;46.096;14.470;2023-04-24T12:42:51;11.98;95.23
67868;SHT31;54672;46.096;14.470;2023-04-24T12:45:18;12.05;94.65
67868;SHT31;54672;46.096;14.470;2023-04-24T12:47:45;11.90;94.69
67868;SHT31;54672;46.096;14.470;2023-04-24T12:50:12;12.05;95.30
67868;SHT31;54672;46.096;14.470;2023-04-24T12:52:38;11.94;95.31
67868;SHT31;54672;46.096;14.470;2023-04-24T12:55:05;11.93;95.52
67868;SHT31;54672;46.096;14.470;2023-04-24T12:57:34;11.84;93.97
67868;SHT31;54672;46.096;14.470;2023-04-24T13:00:00;11.85;95.43
67868;SHT31;54672;46.096;14.470;2023-04-24T13:02:28;11.94;95.73
67868;SHT31;54672;46.096;14.470;2023-04-24T13:04:54;11.98;95.64
67868;SHT31;54672;46.096;14.470;2023-04-24T13:07:20;11.87;95.21
67868;SHT31;54672;46.096;14.470;2023-04-24T13:09:47;11.84;94.56
67868;SHT31;54672;46.096;14.470;2023-04-24T13:12:12;11.88;95.27
67868;SHT31;54672;46.096;14.470;2023-04-24T13:14:38;11.85;94.71
67868;SHT31;54672;46.096;14.470;2023-04-24T13:17:04;11.78;95.09
67868;SHT31;54672;46.096;14.470;2023-04-24T13:19:35;11.52;92.76
67868;SHT31;54672;46.096;14.470;2023-04-24T13:22:01;11.52;92.80
67868;SHT31;54672;46.096;14.470;2023-04-24T13:24:26;11.37;92.04
67868;SHT31;54672;46.096;14.470;2023-04-24T13:26:52;11.25;93.05
67868;SHT31;54672;46.096;14.470;2023-04-24T13:29:18;11.22;94.26
67868;SHT31;54672;46.096;14.470;2023-04-24T13:31:44;11.23;93.54
67868;SHT31;54672;46.096;14.470;2023-04-24T13:34:10;11.20;93.52
67868;SHT31;54672;46.096;14.470;2023-04-24T13:36:35;11.23;94.47
67868;SHT31;54672;46.096;14.470;2023-04-24T13:39:02;11.35;94.28
67868;SHT31;54672;46.096;14.470;2023-04-24T13:41:30;11.43;94.06
67868;SHT31;54672;46.096;14.470;2023-04-24T13:43:55;11.59;94.42
67868;SHT31;54672;46.096;14.470;2023-04-24T13:46:21;11.62;94.63
67868;SHT31;54672;46.096;14.470;2023-04-24T13:48:47;11.74;95.10
67868;SHT31;54672;46.096;14.470;2023-04-24T13:51:12;11.62;94.69
67868;SHT31;54672;46.096;14.470;2023-04-24T13:53:37;11.73;94.85
67868;SHT31;54672;46.096;14.470;2023-04-24T13:56:04;11.78;93.66
67868;SHT31;54672;46.096;14.470;2023-04-24T13:58:30;11.83;93.69
67868;SHT31;54672;46.096;14.470;2023-04-24T14:00:56;11.90;93.72
67868;SHT31;54672;46.096;14.470;2023-04-24T14:03:21;11.97;94.23
67868;SHT31;54672;46.096;14.470;2023-04-24T14:05:47;12.11;94.38
67868;SHT31;54672;46.096;14.470;2023-04-24T14:08:12;12.17;94.48
67868;SHT31;54672;46.096;14.470;2023-04-24T14:10:38;11.80;91.88
67868;SHT31;54672;46.096;14.470;2023-04-24T14:13:03;11.70;92.03
67868;SHT31;54672;46.096;14.470;2023-04-24T14:15:29;11.78;92.65
67868;SHT31;54672;46.096;14.470;2023-04-24T14:17:54;11.78;92.50
67868;SHT31;54672;46.096;14.470;2023-04-24T14:20:20;11.95;93.01
67868;SHT31;54672;46.096;14.470;2023-04-24T14:22:45;12.11;93.25
67868;SHT31;54672;46.096;14.470;2023-04-24T14:25:11;12.21;93.97
67868;SHT31;54672;46.096;14.470;2023-04-24T14:27:36;12.29;94.06
67868;SHT31;54672;46.096;14.470;2023-04-24T14:30:02;12.35;93.96
67868;SHT31;54672;46.096;14.470;2023-04-24T14:32:28;12.39;93.99
67868;SHT31;54672;46.096;14.470;2023-04-24T14:34:53;12.39;93.61
67868;SHT31;54672;46.096;14.470;2023-04-24T14:37:19;12.42;93.47
67868;SHT31;54672;46.096;14.470;2023-04-24T14:39:45;12.42;93.95
67868;SHT31;54672;46.096;14.470;2023-04-24T14:42:10;12.49;94.13
67868;SHT31;54672;46.096;14.470;2023-04-24T14:44:36;12.55;94.12
67868;SHT31;54672;46.096;14.470;2023-04-24T14:47:01;12.56;93.73
67868;SHT31;54672;46.096;14.470;2023-04-24T14:49:27;12.60;92.90
67868;SHT31;54672;46.096;14.470;2023-04-24T14:51:52;12.60;92.55
67868;SHT31;54672;46.096;14.470;2023-04-24T14:54:18;12.53;91.12
67868;SHT31;54672;46.096;14.470;2023-04-24T14:56:44;12.56;91.34
67868;SHT31;54672;46.096;14.470;2023-04-24T14:59:10;12.55;90.69
67868;SHT31;54672;46.096;14.470;2023-04-24T15:01:36;12.57;89.87
67868;SHT31;54672;46.096;14.470;2023-04-24T15:04:01;12.62;90.75
67868;SHT31;54672;46.096;14.470;2023-04-24T15:06:27;12.65;91.49
67868;SHT31;54672;46.096;14.470;2023-04-24T15:08:52;12.67;91.50
67868;SHT31;54672;46.096;14.470;2023-04-24T15:11:18;12.75;92.26
67868;SHT31;54672;46.096;14.470;2023-04-24T15:13:43;12.80;92.24
67868;SHT31;54672;46.096;14.470;2023-04-24T15:16:12;12.76;91.53
67868;SHT31;54672;46.096;14.470;2023-04-24T15:18:37;12.73;91.40